Time;durP1;ratioP1;P1;durP2;ratioP2;P2;SDS_P1;SDS_P2;PMS_P1;PMS_P2;Temp;Humidity;BMP_temperature;BMP_pressure;BME280_temperature;BME280_humidity;BME280_pressure;Samples;Min_cycle;Max_cycle;Signal;HPM_P1;HPM_P2
2022/10/27 00:03:00;;;;;;;1.35;0.50;;;;;;;20.12;51.95;102030.31;16131306;19;129441;-40
2022/10/27 00:08:22;;;;;;;0.68;0.20;;;;;;;20.11;52.04;102028.63;16132613;19;133400;-40
2022/10/27 00:13:44;;;;;;;0.73;0.10;;;;;;;20.10;52.04;102018.59;16129808;19;129257;-40
2022/10/27 00:19:05;;;;;;;0.65;0.13;;;;;;;20.09;52.19;102030.78;16129194;19;129054;-40
2022/10/27 00:24:27;;;;;;;0.75;0.30;;;;;;;20.08;52.19;102031.84;16131016;19;132070;-41
2022/10/27 00:29:49;;;;;;;0.20;0.20;;;;;;;20.07;52.41;102035.72;16133117;19;129648;-40
2022/10/27 00:35:10;;;;;;;0.60;0.40;;;;;;;20.05;51.99;102035.94;16131555;19;130969;-40
2022/10/27 00:40:36;;;;;;;1.05;0.20;;;;;;;20.06;52.09;102032.09;16131558;19;129114;-41
2022/10/27 00:46:17;;;;;;;0.20;0.20;;;;;;;20.05;52.34;102044.28;16131382;19;129530;-40
2022/10/27 00:51:47;;;;;;;0.20;0.10;;;;;;;20.03;51.86;102046.44;16129089;19;130626;-40
2022/10/27 00:57:10;;;;;;;0.20;0.13;;;;;;;20.02;52.16;102041.13;16129235;19;129737;-41
2022/10/27 01:02:34;;;;;;;0.57;0.20;;;;;;;20.01;52.32;102048.59;16127890;19;129472;-40
2022/10/27 01:07:59;;;;;;;0.63;0.30;;;;;;;20.01;51.91;102050.53;16127674;19;130048;-40
2022/10/27 01:13:22;;;;;;;;;;;;;;;19.97;52.35;102048.16;16125802;19;129548;-40
2022/10/27 01:19:21;;;;;;;1.13;0.20;;;;;;;19.98;52.05;102049.03;16127998;19;129628;-40
2022/10/27 01:25:10;;;;;;;0.73;0.20;;;;;;;19.96;51.98;102054.78;16125712;19;130182;-42
2022/10/27 01:30:44;;;;;;;0.10;0.10;;;;;;;19.95;52.15;102055.88;16125192;19;130717;-40
2022/10/27 01:36:14;;;;;;;2.00;0.30;;;;;;;19.95;52.12;102053.09;16123873;19;130097;-40
2022/10/27 01:41:53;;;;;;;0.30;0.20;;;;;;;19.94;52.19;102059.72;16125514;19;130639;-40
2022/10/27 01:47:15;;;;;;;0.20;0.20;;;;;;;19.93;52.25;102049.72;16123879;19;130610;-41
2022/10/27 01:52:41;;;;;;;0.85;0.20;;;;;;;19.92;52.25;102042.47;16124423;19;134811;-40
2022/10/27 01:58:12;;;;;;;0.63;0.32;;;;;;;19.93;52.23;102046.06;16123846;19;129464;-41
2022/10/27 02:03:54;;;;;;;0.47;0.20;;;;;;;19.94;52.05;102039.44;16125190;19;129670;-40
2022/10/27 02:09:24;;;;;;;0.30;0.20;;;;;;;19.92;52.00;102025.81;16124058;19;129571;-40
2022/10/27 02:14:50;;;;;;;0.52;0.20;;;;;;;19.90;52.24;102027.94;16123196;19;129807;-40
2022/10/27 02:20:22;;;;;;;0.70;0.40;;;;;;;19.90;52.20;102021.53;16124303;19;129383;-40
2022/10/27 02:26:04;;;;;;;0.10;0.10;;;;;;;19.89;51.81;102017.91;16122894;19;129658;-40
2022/10/27 02:31:32;;;;;;;0.30;0.20;;;;;;;19.88;51.83;102015.38;16123727;19;129651;-41
2022/10/27 02:36:53;;;;;;;0.15;0.15;;;;;;;19.87;51.70;102010.91;16121171;19;129581;-40
2022/10/27 02:42:15;;;;;;;0.20;0.20;;;;;;;19.85;52.17;102008.34;16122823;19;129950;-39
2022/10/27 02:47:37;;;;;;;0.52;0.20;;;;;;;19.86;51.99;102003.66;16119311;19;129177;-40
2022/10/27 02:52:58;;;;;;;0.13;0.13;;;;;;;19.84;51.85;101990.84;16121765;19;130056;-41
2022/10/27 02:58:20;;;;;;;0.30;0.10;;;;;;;19.84;51.95;101984.41;16120400;19;129305;-40
2022/10/27 03:03:42;;;;;;;1.05;0.10;;;;;;;19.85;51.91;101991.66;16120266;19;129911;-42
2022/10/27 03:09:04;;;;;;;0.52;0.20;;;;;;;19.83;52.16;101978.03;16134584;19;129978;-39
2022/10/27 03:14:25;;;;;;;0.30;0.20;;;;;;;19.83;51.72;101977.16;16134095;19;130708;-40
2022/10/27 03:19:47;;;;;;;0.82;0.20;;;;;;;19.81;51.87;101963.53;16134963;19;131182;-40
2022/10/27 03:25:10;;;;;;;0.10;0.10;;;;;;;19.81;51.78;101959.91;16133000;19;130115;-40
2022/10/27 03:30:32;;;;;;;0.63;0.10;;;;;;;19.80;52.09;101961.81;16133851;19;130536;-40
2022/10/27 03:35:54;;;;;;;0.17;0.10;;;;;;;19.80;51.96;101960.97;16134540;19;129787;-41
2022/10/27 03:41:15;;;;;;;0.30;0.20;;;;;;;19.80;51.89;101958.22;16135299;19;129621;-39
2022/10/27 03:46:37;;;;;;;0.20;0.10;;;;;;;19.79;51.88;101965.66;16134075;19;134477;-40
2022/10/27 03:51:59;;;;;;;1.65;0.15;;;;;;;19.78;51.64;101963.13;16132534;19;129979;-40
2022/10/27 03:57:20;;;;;;;0.35;0.20;;;;;;;19.77;52.04;101970.59;16132608;19;129290;-41
2022/10/27 04:02:42;;;;;;;0.15;0.13;;;;;;;19.77;51.79;101970.59;16133087;19;132946;-40
2022/10/27 04:08:04;;;;;;;0.43;0.20;;;;;;;19.77;51.50;101989.19;16131770;19;129715;-39
2022/10/27 04:13:26;;;;;;;0.30;0.20;;;;;;;19.76;52.00;101987.50;16130434;19;129712;-40
2022/10/27 04:18:51;;;;;;;0.38;0.20;;;;;;;19.75;51.79;101981.09;16128603;19;129978;-40
2022/10/27 04:24:13;;;;;;;0.50;0.15;;;;;;;19.76;51.62;101993.06;16129699;19;129428;-40
2022/10/27 04:29:35;;;;;;;0.20;0.15;;;;;;;19.74;51.52;101986.88;16131787;19;129999;-40
2022/10/27 04:34:56;;;;;;;0.55;0.20;;;;;;;19.73;51.78;101994.38;16129653;19;129614;-41
2022/10/27 04:40:18;;;;;;;0.40;0.20;;;;;;;19.72;52.02;101991.78;16129327;19;129708;-40
2022/10/27 04:45:41;;;;;;;0.30;0.20;;;;;;;19.72;51.58;101992.66;16130426;19;128998;-42
2022/10/27 04:51:02;;;;;;;0.20;0.10;;;;;;;19.70;51.47;101986.47;16129412;19;131834;-41
2022/10/27 04:56:24;;;;;;;0.30;0.20;;;;;;;19.72;51.72;101991.78;16127965;19;130992;-41
2022/10/27 05:01:46;;;;;;;0.88;0.10;;;;;;;19.71;51.54;101987.31;16127955;19;129253;-39
2022/10/27 05:07:07;;;;;;;0.10;0.10;;;;;;;19.69;51.70;101985.63;16127423;19;130265;-41
2022/10/27 05:12:29;;;;;;;0.38;0.20;;;;;;;19.69;51.97;101971.72;16126600;19;129650;-47
2022/10/27 05:17:51;;;;;;;0.43;0.13;;;;;;;19.72;51.88;101981.56;16125565;19;129313;-40
2022/10/27 05:23:14;;;;;;;0.20;0.15;;;;;;;19.73;51.85;101974.94;16125924;19;130818;-39
2022/10/27 05:28:36;;;;;;;0.15;0.08;;;;;;;19.72;51.71;101964.91;16127424;19;129438;-42
2022/10/27 05:33:58;;;;;;;0.10;0.10;;;;;;;19.73;51.86;101960.19;16128880;19;129329;-40
2022/10/27 05:39:40;;;;;;;0.30;0.10;;;;;;;19.71;51.44;101959.56;16126093;19;128836;-40
2022/10/27 05:45:02;;;;;;;0.82;0.20;;;;;;;19.70;51.88;101955.94;16125346;19;131937;-44
2022/10/27 05:50:24;;;;;;;8.23;0.98;;;;;;;19.69;51.97;101954.25;16120893;19;131057;-42
2022/10/27 05:55:46;;;;;;;14.35;0.63;;;;;;;19.68;51.89;101953.41;16122451;19;129501;-41
2022/10/27 06:01:08;;;;;;;8.68;0.47;;;;;;;19.68;51.90;101942.31;16121387;19;130506;-43
2022/10/27 06:06:29;;;;;;;4.32;0.40;;;;;;;19.68;51.45;101936.75;16121605;19;130112;-42
2022/10/27 06:11:51;;;;;;;6.63;0.47;;;;;;;19.68;51.58;101931.19;16121779;19;129585;-40
2022/10/27 06:17:13;;;;;;;3.15;0.55;;;;;;;19.69;51.45;101932.88;16123137;19;129995;-41
2022/10/27 06:22:35;;;;;;;2.58;0.40;;;;;;;19.69;51.46;101934.81;16124962;19;130008;-44
2022/10/27 06:27:56;;;;;;;5.13;0.50;;;;;;;19.67;51.68;101926.72;16124248;19;129550;-41
2022/10/27 06:33:18;;;;;;;3.38;0.20;;;;;;;19.68;51.58;101922.88;16124287;19;129450;-41
2022/10/27 06:38:40;;;;;;;5.68;0.30;;;;;;;19.68;51.78;101925.66;16124667;19;129541;-42
2022/10/27 06:44:05;;;;;;;5.00;0.20;;;;;;;19.72;51.57;101939.03;16151341;19;130097;-40
2022/10/27 06:49:26;;;;;;;4.22;0.40;;;;;;;19.78;51.63;101932.59;16151723;19;129386;-40
2022/10/27 06:54:48;;;;;;;1.45;0.30;;;;;;;20.09;50.67;101914.09;16152491;19;129235;-42
2022/10/27 07:00:16;;;;;;;1.55;0.10;;;;;;;20.77;49.42;101920.50;16151043;19;129559;-41
2022/10/27 07:05:37;;;;;;;2.97;0.20;;;;;;;21.05;48.83;101930.13;16152373;19;129570;-40
2022/10/27 07:10:59;;;;;;;1.05;0.28;;;;;;;21.24;48.08;101930.03;16151915;19;129308;-40
2022/10/27 07:16:21;;;;;;;3.67;0.30;;;;;;;21.05;48.51;101932.91;16151808;19;129759;-41
2022/10/27 07:21:43;;;;;;;0.95;0.20;;;;;;;20.90;48.74;101948.13;16150746;19;129072;-41
2022/10/27 07:27:04;;;;;;;0.55;0.20;;;;;;;21.02;48.69;101930.63;16150726;19;129316;-40
2022/10/27 07:32:31;;;;;;;1.08;0.30;;;;;;;20.97;48.58;101938.81;16146333;19;130839;-41
2022/10/27 07:37:53;;;;;;;0.38;0.25;;;;;;;20.79;49.05;101940.59;16147324;19;129562;-40
2022/10/27 07:43:15;;;;;;;3.17;0.30;;;;;;;20.96;48.81;101942.69;16147344;19;129293;-40
2022/10/27 07:48:37;;;;;;;2.38;0.10;;;;;;;21.42;47.67;101938.28;16150292;19;129362;-40
2022/10/27 07:53:58;;;;;;;1.75;0.25;;;;;;;21.51;47.33;101930.44;16138973;19;129610;-40
2022/10/27 07:59:20;;;;;;;0.80;0.10;;;;;;;21.69;47.00;101928.66;16133108;19;130071;-40
2022/10/27 08:04:41;;;;;;;1.27;0.30;;;;;;;21.88;46.36;101926.56;16134885;19;129708;-42
2022/10/27 08:10:04;;;;;;;1.75;0.52;;;;;;;22.12;45.96;101910.63;16133078;19;129848;-40
2022/10/27 08:15:26;;;;;;;1.55;0.30;;;;;;;22.42;45.13;101895.69;16130140;19;129537;-40
2022/10/27 08:20:47;;;;;;;2.22;0.38;;;;;;;21.77;46.51;101898.50;16133721;19;130737;-40
2022/10/27 08:26:09;;;;;;;1.48;0.20;;;;;;;21.80;46.47;101886.84;16132516;19;129497;-40
2022/10/27 08:31:31;;;;;;;0.98;0.22;;;;;;;21.51;46.69;101886.78;16128613;19;128965;-40
2022/10/27 08:36:52;;;;;;;1.45;0.22;;;;;;;21.25;47.48;101901.13;16131154;19;129873;-40
2022/10/27 08:42:35;;;;;;;1.45;0.20;;;;;;;21.02;47.97;101897.22;16129927;19;129878;-40
2022/10/27 08:47:59;;;;;;;1.35;0.40;;;;;;;20.83;48.19;101897.28;16127500;19;130529;-40
2022/10/27 08:53:28;;;;;;;0.88;0.30;;;;;;;20.72;48.61;101901.72;16132754;19;128854;-40
2022/10/27 08:58:50;;;;;;;0.88;0.40;;;;;;;20.63;48.73;101902.28;16127883;19;129452;-39
2022/10/27 09:04:31;;;;;;;0.80;0.20;;;;;;;20.56;48.68;101894.88;16127039;19;129472;-40
2022/10/27 09:10:12;;;;;;;3.30;0.40;;;;;;;20.50;48.98;101879.16;16131750;19;129445;-41
2022/10/27 09:15:51;;;;;;;0.10;0.10;;;;;;;20.45;49.39;101870.66;16129382;19;129205;-41
2022/10/27 09:21:21;;;;;;;0.47;0.20;;;;;;;20.42;49.49;101863.66;16128421;19;129230;-39
2022/10/27 09:26:45;;;;;;;3.10;0.40;;;;;;;20.38;49.31;101862.41;16128280;19;129805;-40
2022/10/27 09:32:22;;;;;;;0.82;0.30;;;;;;;20.36;49.35;101877.63;16129767;19;129865;-40
2022/10/27 09:37:44;;;;;;;1.35;0.30;;;;;;;20.33;49.20;101864.22;16128055;19;130358;-41
2022/10/27 09:43:09;;;;;;;3.00;0.50;;;;;;;20.33;49.30;101847.53;16128401;19;130347;-41
2022/10/27 09:48:33;;;;;;;1.10;0.30;;;;;;;20.27;49.61;101844.63;16129436;19;129434;-40
2022/10/27 09:53:55;;;;;;;3.33;0.35;;;;;;;20.24;49.72;101831.19;16127619;19;129256;-41
2022/10/27 09:59:22;;;;;;;2.50;0.30;;;;;;;20.25;49.51;101835.69;16121336;19;129055;-41
2022/10/27 10:04:45;;;;;;;2.80;0.40;;;;;;;20.21;49.89;101817.78;16122018;19;129493;-40
2022/10/27 10:10:21;;;;;;;0.57;0.40;;;;;;;20.22;49.71;101819.47;16125644;19;129470;-40
2022/10/27 10:16:12;;;;;;;1.15;0.32;;;;;;;20.21;50.01;101841.94;16123522;19;129252;-40
2022/10/27 10:21:46;;;;;;;2.17;0.30;;;;;;;20.20;49.66;101843.84;16120854;19;129839;-40
2022/10/27 10:27:25;;;;;;;0.47;0.20;;;;;;;20.19;49.62;101825.50;16122940;19;129070;-39
2022/10/27 10:32:51;;;;;;;0.68;0.22;;;;;;;20.17;50.06;101822.13;16120098;19;129906;-40
2022/10/27 10:38:22;;;;;;;2.80;0.30;;;;;;;20.17;50.10;101808.22;16121237;19;129844;-40
2022/10/27 10:43:44;;;;;;;0.60;0.30;;;;;;;20.14;50.27;101823.41;16124446;19;130715;-40
2022/10/27 10:49:20;;;;;;;1.10;0.35;;;;;;;20.13;49.82;101820.88;16120733;19;129334;-41
2022/10/27 10:54:44;;;;;;;1.58;0.50;;;;;;;20.09;50.15;101831.63;16118394;19;129557;-40
2022/10/27 11:00:14;;;;;;;3.20;0.50;;;;;;;20.10;50.42;101821.34;16118552;19;129676;-40
2022/10/27 11:05:36;;;;;;;5.97;0.60;;;;;;;20.09;50.15;101819.66;16119445;19;130256;-40
2022/10/27 11:10:59;;;;;;;1.27;0.60;;;;;;;20.07;50.31;101810.69;16119078;19;129421;-40
2022/10/27 11:16:21;;;;;;;1.05;0.50;;;;;;;20.06;50.26;101817.38;16120366;19;129050;-40
2022/10/27 11:21:57;;;;;;;4.68;0.60;;;;;;;20.05;50.33;101808.16;16118056;19;129380;-40
2022/10/27 11:27:30;;;;;;;5.57;1.23;;;;;;;20.06;50.64;101803.47;16127754;19;129714;-41
2022/10/27 11:33:22;;;;;;;1.30;0.60;;;;;;;20.05;50.63;101799.00;16135328;19;129529;-40
2022/10/27 11:39:05;;;;;;;3.28;0.60;;;;;;;20.05;50.25;101785.13;16134363;19;129320;-41
2022/10/27 11:45:00;;;;;;;2.63;0.70;;;;;;;20.05;50.64;101785.94;16135180;19;129415;-40
2022/10/27 11:50:30;;;;;;;1.83;0.55;;;;;;;20.06;50.67;101772.94;16137357;19;129610;-40
2022/10/27 11:56:16;;;;;;;1.20;0.70;;;;;;;20.07;50.64;101757.94;16135559;19;129504;-41
2022/10/27 12:01:51;;;;;;;2.85;0.90;;;;;;;20.07;50.63;101749.59;16136862;19;130176;-40
2022/10/27 12:07:20;;;;;;;4.90;0.88;;;;;;;20.07;50.64;101744.03;16127352;19;129306;-42
2022/10/27 12:12:47;;;;;;;2.05;0.55;;;;;;;20.07;50.69;101735.69;16133410;19;129512;-39
2022/10/27 12:18:27;;;;;;;3.80;0.80;;;;;;;20.08;50.81;101723.50;16133194;19;130753;-40
2022/10/27 12:24:05;;;;;;;5.07;1.00;;;;;;;20.07;50.19;101725.47;16132774;19;129936;-40
2022/10/27 12:29:36;;;;;;;3.85;0.60;;;;;;;20.06;50.29;101736.81;16132350;19;129583;-40
2022/10/27 12:35:05;;;;;;;2.45;0.90;;;;;;;20.06;50.53;101745.16;16131919;19;135147;-40
2022/10/27 12:40:37;;;;;;;0.82;0.60;;;;;;;20.05;50.74;101744.28;16129329;19;130808;-40
2022/10/27 12:46:27;;;;;;;5.35;1.10;;;;;;;20.06;50.71;101737.66;16133195;19;129431;-40
2022/10/27 12:52:14;;;;;;;3.28;0.70;;;;;;;20.07;50.59;101744.91;16129414;19;129553;-40
2022/10/27 12:57:41;;;;;;;1.52;0.70;;;;;;;20.07;50.55;101752.38;16132564;19;129156;-41
2022/10/27 13:03:29;;;;;;;3.13;0.80;;;;;;;20.07;50.80;101736.56;16132489;19;129546;-41
2022/10/27 13:09:09;;;;;;;1.98;0.80;;;;;;;20.07;50.74;101717.13;16130228;19;129493;-40
2022/10/27 13:15:02;;;;;;;2.67;0.80;;;;;;;20.06;50.26;101704.31;16127482;19;129563;-39
2022/10/27 13:20:46;;;;;;;2.42;0.50;;;;;;;20.06;50.83;101690.44;16127665;19;129918;-40
2022/10/27 13:26:25;;;;;;;4.10;0.73;;;;;;;20.07;50.53;101689.34;16128840;19;130094;-40
2022/10/27 13:32:18;;;;;;;2.53;0.85;;;;;;;20.06;50.55;101678.47;16128312;19;129492;-41
2022/10/27 13:37:47;;;;;;;2.85;0.80;;;;;;;20.06;50.71;101697.94;16129653;19;129392;-41
2022/10/27 13:43:35;;;;;;;3.30;0.70;;;;;;;20.05;50.80;101696.22;16127030;19;129950;-40
2022/10/27 13:48:57;;;;;;;2.50;0.73;;;;;;;20.04;50.70;101697.31;16127150;19;129873;-41
2022/10/27 13:54:51;;;;;;;2.63;0.60;;;;;;;20.06;50.75;101697.94;16127663;19;129540;-40
2022/10/27 14:00:19;;;;;;;1.10;0.90;;;;;;;20.04;50.61;101697.31;16124252;19;129446;-40
2022/10/27 14:05:48;;;;;;;1.13;0.60;;;;;;;20.05;50.53;101707.34;16130211;19;129375;-40
2022/10/27 14:11:14;;;;;;;2.97;0.82;;;;;;;20.04;50.51;101711.19;16125070;19;129400;-41
2022/10/27 14:16:40;;;;;;;2.28;0.50;;;;;;;20.04;50.86;101713.97;16125332;19;129573;-40
2022/10/27 14:22:03;;;;;;;2.00;0.65;;;;;;;20.04;50.69;101722.31;16125081;19;129430;-40
2022/10/27 14:27:25;;;;;;;1.95;0.80;;;;;;;20.04;50.92;101722.31;16122545;19;129656;-40
2022/10/27 14:32:47;;;;;;;1.67;0.75;;;;;;;20.04;50.73;101725.91;16124367;19;130531;-40
2022/10/27 14:38:18;;;;;;;2.85;0.95;;;;;;;20.05;50.90;101730.41;16123195;19;129450;-39
2022/10/27 14:43:46;;;;;;;2.35;0.85;;;;;;;20.04;50.54;101727.88;16124065;19;129585;-40
2022/10/27 14:49:15;;;;;;;2.03;0.90;;;;;;;20.03;50.58;101726.16;16122574;19;129140;-40
2022/10/27 14:54:37;;;;;;;1.50;0.70;;;;;;;20.03;50.54;101727.00;16124786;19;131078;-39
2022/10/27 15:00:01;;;;;;;3.55;1.10;;;;;;;20.02;50.63;101730.03;16125911;19;129394;-40
2022/10/27 15:05:28;;;;;;;2.95;1.10;;;;;;;20.01;50.51;101717.22;16137469;19;129944;-40
2022/10/27 15:10:54;;;;;;;1.98;0.77;;;;;;;20.01;50.97;101717.22;16137013;19;129047;-41
2022/10/27 15:16:20;;;;;;;1.90;0.70;;;;;;;20.02;50.59;101718.91;16136088;19;129493;-40
2022/10/27 15:22:03;;;;;;;2.70;1.00;;;;;;;20.01;50.59;101722.78;16137599;19;133659;-39
2022/10/27 15:27:32;;;;;;;1.67;0.80;;;;;;;20.01;50.77;101729.16;16134356;19;129620;-40
2022/10/27 15:32:54;;;;;;;4.57;1.10;;;;;;;20.01;50.54;101745.00;16135559;19;129527;-39
2022/10/27 15:38:27;;;;;;;6.10;1.50;;;;;;;20.03;50.65;101751.16;16133955;19;130242;-40
2022/10/27 15:43:52;;;;;;;6.40;1.65;;;;;;;20.02;50.55;101741.13;16133238;19;130309;-40
2022/10/27 15:49:32;;;;;;;7.13;1.83;;;;;;;20.02;50.35;101749.47;16132166;19;129371;-41
2022/10/27 15:54:54;;;;;;;12.02;2.38;;;;;;;20.01;50.85;101758.88;16133573;19;129127;-40
2022/10/27 16:00:24;;;;;;;9.15;1.90;;;;;;;20.03;50.76;101753.94;16136377;19;129244;-40
2022/10/27 16:05:48;;;;;;;6.30;2.30;;;;;;;20.00;51.08;101755.25;16133989;19;130261;-40
2022/10/27 16:11:12;;;;;;;10.73;2.88;;;;;;;20.01;50.83;101758.88;16133188;19;129346;-40
2022/10/27 16:16:35;;;;;;;12.57;2.90;;;;;;;20.01;50.94;101756.09;16133413;19;129520;-40
2022/10/27 16:21:57;;;;;;;9.07;2.80;;;;;;;19.99;51.37;101746.06;16135084;19;129032;-40
2022/10/27 16:27:23;;;;;;;9.82;2.60;;;;;;;19.99;51.12;101759.97;16131040;19;129637;-40
2022/10/27 16:32:46;;;;;;;5.97;2.20;;;;;;;19.97;51.35;101762.09;16132378;19;129568;-40
2022/10/27 16:38:09;;;;;;;9.95;1.90;;;;;;;19.96;51.11;101751.22;16129756;19;129651;-40
2022/10/27 16:43:34;;;;;;;5.22;2.00;;;;;;;19.95;51.40;101747.59;16133656;19;129503;-41
2022/10/27 16:48:56;;;;;;;9.77;2.37;;;;;;;19.95;51.15;101750.38;16129071;19;130017;-40
2022/10/27 16:54:17;;;;;;;4.00;1.70;;;;;;;19.94;51.20;101750.63;16126853;19;135085;-40
2022/10/27 16:59:39;;;;;;;8.85;2.30;;;;;;;19.93;51.42;101748.91;16130221;19;130671;-40
2022/10/27 17:05:01;;;;;;;6.10;1.55;;;;;;;19.92;51.33;101736.97;16128412;19;131184;-41
2022/10/27 17:10:22;;;;;;;3.80;1.50;;;;;;;19.90;51.28;101736.34;16124600;19;131056;-40
2022/10/27 17:16:05;;;;;;;3.40;1.40;;;;;;;19.90;51.38;101719.69;16126347;19;129426;-40
2022/10/27 17:21:28;;;;;;;6.00;1.60;;;;;;;19.89;51.36;101731.88;16127122;19;129794;-40
2022/10/27 17:26:49;;;;;;;4.05;1.30;;;;;;;19.89;50.98;101722.69;16126216;19;129632;-40
2022/10/27 17:32:11;;;;;;;4.55;1.67;;;;;;;19.88;51.54;101719.06;16124639;19;129899;-39
2022/10/27 17:37:33;;;;;;;13.75;2.25;;;;;;;19.86;51.46;101720.41;16123092;19;129460;-39
2022/10/27 17:42:55;;;;;;;9.45;1.73;;;;;;;19.87;51.93;101733.22;16122703;19;129906;-40
2022/10/27 17:48:17;;;;;;;10.00;1.55;;;;;;;19.95;51.77;101738.41;16045940;19;159886;-40
2022/10/27 17:53:40;;;;;;;5.57;1.30;;;;;;;20.09;51.92;101742.75;16125518;19;130579;-40
2022/10/27 17:59:03;;;;;;;4.55;1.23;;;;;;;20.29;51.70;101736.88;16124576;19;129938;-40
2022/10/27 18:04:25;;;;;;;10.32;1.50;;;;;;;20.45;51.56;101731.69;16119128;19;129807;-40
2022/10/27 18:09:46;;;;;;;12.60;1.40;;;;;;;20.54;51.62;101724.72;16120205;19;130365;-40
2022/10/27 18:15:08;;;;;;;11.32;1.65;;;;;;;20.64;51.25;101726.03;16123572;19;129858;-41
2022/10/27 18:20:53;;;;;;;7.38;1.60;;;;;;;20.69;51.28;101727.03;16123730;19;130051;-41
2022/10/27 18:26:15;;;;;;;16.52;1.55;;;;;;;20.73;51.20;101727.38;16122981;19;129752;-41
2022/10/27 18:31:38;;;;;;;14.05;1.95;;;;;;;20.71;51.34;101733.19;16123663;19;129641;-42
2022/10/27 18:37:00;;;;;;;19.58;2.10;;;;;;;20.70;50.98;101730.63;16119905;19;129491;-40
2022/10/27 18:42:22;;;;;;;10.43;1.30;;;;;;;20.68;51.03;101725.31;16125933;19;129513;-42
2022/10/27 18:47:44;;;;;;;19.25;1.40;;;;;;;20.68;51.50;101732.81;16122762;19;130675;-40
2022/10/27 18:53:06;;;;;;;18.23;1.77;;;;;;;20.67;51.10;101743.09;16121559;19;130089;-41
2022/10/27 18:58:28;;;;;;;12.75;1.70;;;;;;;20.67;51.39;101725.56;16122924;19;129558;-39
2022/10/27 19:03:55;;;;;;;21.70;1.60;;;;;;;20.66;51.46;101729.44;16120335;19;129334;-41
2022/10/27 19:09:16;;;;;;;15.80;1.58;;;;;;;20.64;51.72;101717.72;16119044;19;129252;-41
2022/10/27 19:14:38;;;;;;;15.60;1.70;;;;;;;20.63;51.63;101725.19;16121493;19;129298;-41
2022/10/27 19:20:00;;;;;;;8.93;1.20;;;;;;;20.62;51.57;101717.94;16119954;19;129922;-41
2022/10/27 19:25:22;;;;;;;9.30;1.20;;;;;;;20.59;51.63;101719.25;16119218;19;129477;-40
2022/10/27 19:30:54;;;;;;;15.50;1.60;;;;;;;20.60;51.48;101726.53;16119405;19;129346;-40
2022/10/27 19:36:20;;;;;;;10.60;0.98;;;;;;;20.58;51.66;101728.69;16116872;19;129817;-41
2022/10/27 19:41:41;;;;;;;9.48;1.00;;;;;;;20.56;52.15;101724.47;16119340;19;131120;-40
2022/10/27 19:47:03;;;;;;;13.30;1.33;;;;;;;20.54;51.81;101709.94;16123691;19;130122;-41
2022/10/27 19:52:25;;;;;;;18.80;1.45;;;;;;;20.53;51.96;101706.34;16135962;19;130378;-41
2022/10/27 19:57:47;;;;;;;12.00;0.90;;;;;;;20.51;52.08;101708.50;16131897;19;129780;-39
2022/10/27 20:03:09;;;;;;;8.68;1.00;;;;;;;20.52;52.44;101703.78;16133250;19;129518;-41
2022/10/27 20:08:31;;;;;;;8.77;1.10;;;;;;;20.51;52.42;101715.97;16129278;19;129828;-41
2022/10/27 20:13:55;;;;;;;5.32;0.70;;;;;;;20.50;52.44;101723.50;16130169;19;129533;-40
2022/10/27 20:19:19;;;;;;;4.05;0.80;;;;;;;20.49;52.85;101718.19;16129555;19;129142;-42
2022/10/27 20:24:41;;;;;;;13.40;1.25;;;;;;;20.47;52.26;101712.84;16131098;19;134143;-40
2022/10/27 20:30:03;;;;;;;11.50;1.52;;;;;;;20.47;52.67;101704.50;16131193;19;129747;-41
2022/10/27 20:35:25;;;;;;;9.90;1.20;;;;;;;20.46;52.41;101702.81;16130997;19;129562;-42
2022/10/27 20:40:46;;;;;;;16.30;1.42;;;;;;;20.46;52.30;101697.25;16130735;19;129433;-46
2022/10/27 20:46:09;;;;;;;21.65;1.65;;;;;;;20.46;52.37;101686.13;16129831;19;129467;-43
2022/10/27 20:51:32;;;;;;;13.65;1.40;;;;;;;20.45;52.51;101690.88;16128981;19;130451;-44
2022/10/27 20:56:53;;;;;;;6.00;1.35;;;;;;;20.44;52.64;101691.09;16127646;19;128900;-44
2022/10/27 21:02:15;;;;;;;7.25;1.45;;;;;;;20.43;52.44;101683.88;16125679;19;129624;-43
2022/10/27 21:07:37;;;;;;;3.22;1.00;;;;;;;20.41;52.47;101686.03;16136260;19;130253;-43
2022/10/27 21:12:59;;;;;;;10.43;1.00;;;;;;;20.40;52.60;101684.34;16130363;19;130933;-42
2022/10/27 21:18:20;;;;;;;6.45;0.77;;;;;;;20.38;52.09;101673.44;16124414;19;129075;-42
2022/10/27 21:23:42;;;;;;;7.93;1.10;;;;;;;20.37;52.51;101677.31;16128738;19;130403;-42
2022/10/27 21:29:04;;;;;;;5.43;1.10;;;;;;;20.36;52.11;101677.56;16130013;19;129584;-44
2022/10/27 21:34:25;;;;;;;5.20;1.00;;;;;;;20.34;52.43;101682.50;16126271;19;130061;-42
2022/10/27 21:39:47;;;;;;;5.88;0.80;;;;;;;20.32;52.45;101668.84;16129398;19;129900;-44
2022/10/27 21:45:11;;;;;;;1.95;0.70;;;;;;;20.31;52.00;101669.94;16126406;19;129503;-42
2022/10/27 21:50:33;;;;;;;5.70;0.70;;;;;;;20.29;52.17;101658.22;16123856;19;130220;-42
2022/10/27 21:55:59;;;;;;;3.45;0.70;;;;;;;20.27;52.19;101650.13;16125992;19;131665;-42
2022/10/27 22:01:21;;;;;;;2.00;0.60;;;;;;;20.25;52.35;101643.97;16128145;19;134059;-42
2022/10/27 22:06:43;;;;;;;5.63;1.00;;;;;;;20.24;52.20;101638.66;16127208;19;129715;-42
2022/10/27 22:12:05;;;;;;;3.55;0.70;;;;;;;20.22;52.15;101641.66;16127642;19;129983;-42
2022/10/27 22:17:28;;;;;;;7.22;1.00;;;;;;;20.22;51.89;101641.66;16124530;19;130124;-42
2022/10/27 22:22:51;;;;;;;6.53;0.80;;;;;;;20.21;51.88;101633.56;16124532;19;129426;-42
2022/10/27 22:28:13;;;;;;;1.95;0.63;;;;;;;20.20;51.88;101643.00;16124984;19;130368;-41
2022/10/27 22:33:35;;;;;;;2.78;0.63;;;;;;;20.18;52.04;101640.47;16121342;19;128930;-44
2022/10/27 22:39:03;;;;;;;4.78;0.70;;;;;;;20.16;51.92;101625.97;16122588;19;129977;-42
2022/10/27 22:44:24;;;;;;;0.82;0.50;;;;;;;20.17;52.25;101632.34;16121766;19;129589;-42
2022/10/27 22:49:46;;;;;;;3.17;0.70;;;;;;;20.15;52.07;101624.25;16123977;19;134040;-42
2022/10/27 22:55:08;;;;;;;0.82;0.50;;;;;;;20.14;51.81;101623.41;16119360;19;129364;-42
2022/10/27 23:00:30;;;;;;;1.88;0.70;;;;;;;20.15;51.78;101629.81;16119156;19;129825;-42
2022/10/27 23:05:52;;;;;;;3.78;0.60;;;;;;;20.13;51.77;101643.09;16121359;19;130533;-42
2022/10/27 23:11:14;;;;;;;1.55;0.60;;;;;;;20.13;52.21;101654.22;16122780;19;129019;-42
2022/10/27 23:16:36;;;;;;;1.52;0.60;;;;;;;20.11;51.98;101656.38;16117054;19;129486;-42
2022/10/27 23:21:57;;;;;;;1.70;0.60;;;;;;;20.10;51.82;101647.22;16122840;19;129689;-42
2022/10/27 23:27:19;;;;;;;2.58;0.88;;;;;;;20.09;52.11;101659.41;16136033;19;130205;-42
2022/10/27 23:32:41;;;;;;;3.17;0.70;;;;;;;20.09;51.90;101652.97;16135405;19;131001;-43
2022/10/27 23:38:03;;;;;;;1.85;0.57;;;;;;;20.08;51.93;101646.59;16136437;19;129587;-42
2022/10/27 23:43:28;;;;;;;0.60;0.40;;;;;;;20.07;52.08;101655.16;16132242;19;129316;-44
2022/10/27 23:48:51;;;;;;;0.80;0.40;;;;;;;20.07;51.79;101657.94;16133047;19;129426;-42
2022/10/27 23:54:13;;;;;;;1.45;0.45;;;;;;;20.06;51.72;101647.94;16133620;19;129719;-42
2022/10/27 23:59:34;;;;;;;2.13;0.50;;;;;;;20.04;52.06;101648.16;16131587;19;130016;-42
